createdAt,value
2017-08-16T00:00:59.106Z,19.21
2017-08-16T00:01:58.868Z,19.16
2017-08-16T00:02:58.855Z,19.21
2017-08-16T00:03:58.838Z,19.16
2017-08-16T00:04:58.815Z,19.25
2017-08-16T00:05:58.802Z,19.13
2017-08-16T00:06:58.780Z,19.09
2017-08-16T00:07:58.759Z,19.2
2017-08-16T00:08:59.136Z,19.15
2017-08-16T00:09:58.715Z,19.28
2017-08-16T00:10:58.696Z,19.1
2017-08-16T00:11:58.674Z,19.12
2017-08-16T00:12:58.663Z,19.2
2017-08-16T00:13:58.654Z,19.21
2017-08-16T00:14:58.611Z,19.16
2017-08-16T00:15:58.807Z,19.1
2017-08-16T00:16:58.584Z,19.13
2017-08-16T00:17:58.558Z,19.16
2017-08-16T00:18:58.537Z,19.12
2017-08-16T00:19:58.518Z,19.1
2017-08-16T00:20:58.504Z,19.13
2017-08-16T00:21:58.479Z,19.15
2017-08-16T00:22:58.462Z,19.06
2017-08-16T00:23:58.437Z,19.12
2017-08-16T00:24:58.421Z,19.02
2017-08-16T00:25:58.413Z,18.97
2017-08-16T00:26:58.384Z,19.12
2017-08-16T00:27:58.569Z,19.01
2017-08-16T00:28:58.352Z,18.93
2017-08-16T00:29:58.319Z,18.93
2017-08-16T00:30:58.303Z,18.93
2017-08-16T00:31:58.280Z,19.01
2017-08-16T00:33:12.869Z,18.97
2017-08-16T00:33:58.238Z,19.02
2017-08-16T00:34:57.970Z,19.01
2017-08-16T00:35:58.209Z,18.91
2017-08-16T00:36:58.394Z,18.86
2017-08-16T00:37:58.167Z,18.93
2017-08-16T00:38:58.152Z,18.94
2017-08-16T00:39:58.123Z,18.9
2017-08-16T00:40:58.105Z,18.94
2017-08-16T00:41:58.090Z,18.86
2017-08-16T00:42:57.769Z,18.86
2017-08-16T00:43:58.067Z,18.83
2017-08-16T00:44:58.017Z,18.84
2017-08-16T00:45:58.009Z,18.87
2017-08-16T00:46:57.984Z,18.75
2017-08-16T00:47:57.970Z,18.75
2017-08-16T00:48:57.941Z,18.76
2017-08-16T00:49:57.924Z,18.76
2017-08-16T00:50:57.906Z,18.78
2017-08-16T00:51:57.876Z,18.71
2017-08-16T00:52:57.871Z,18.72
2017-08-16T00:53:57.845Z,18.74
2017-08-16T00:54:57.826Z,18.68
2017-08-16T00:55:57.806Z,18.59
2017-08-16T00:56:57.490Z,18.68
2017-08-16T00:57:57.772Z,18.69
2017-08-16T00:58:57.751Z,18.64
2017-08-16T00:59:57.722Z,18.71
2017-08-16T01:00:57.701Z,18.66
2017-08-16T01:01:57.747Z,18.69
2017-08-16T01:02:57.662Z,18.66
2017-08-16T01:03:57.642Z,18.65
2017-08-16T01:04:57.630Z,18.62
2017-08-16T01:05:57.601Z,18.68
2017-08-16T01:06:57.584Z,18.69
2017-08-16T01:07:57.592Z,18.65
2017-08-16T01:08:57.538Z,18.65
2017-08-16T01:09:57.526Z,18.59
2017-08-16T01:10:57.511Z,18.68
2017-08-16T01:11:57.484Z,18.65
2017-08-16T01:12:57.468Z,18.69
2017-08-16T01:13:57.451Z,18.68
2017-08-16T01:14:57.423Z,18.62
2017-08-16T01:15:57.469Z,18.65
2017-08-16T01:16:57.388Z,18.64
2017-08-16T01:17:57.564Z,18.56
2017-08-16T01:18:57.347Z,18.69
2017-08-16T01:19:57.328Z,18.74
2017-08-16T01:20:57.306Z,18.69
2017-08-16T01:21:57.286Z,18.71
2017-08-16T01:22:57.272Z,18.71
2017-08-16T01:23:57.450Z,18.79
2017-08-16T01:24:57.246Z,18.75
2017-08-16T01:25:57.206Z,18.76
2017-08-16T01:26:57.192Z,18.79
2017-08-16T01:27:57.160Z,18.74
2017-08-16T01:28:57.153Z,18.76
2017-08-16T01:29:56.828Z,18.76
2017-08-16T01:30:57.105Z,18.6
2017-08-16T01:31:57.097Z,18.6
2017-08-16T01:32:57.069Z,18.66
2017-08-16T01:33:56.742Z,18.6
2017-08-16T01:34:57.024Z,18.66
2017-08-16T01:35:57.009Z,18.6
2017-08-16T01:36:56.982Z,18.59
2017-08-16T01:37:56.970Z,18.62
2017-08-16T01:38:56.942Z,18.65
2017-08-16T01:39:56.926Z,18.69
2017-08-16T01:40:56.906Z,18.64
2017-08-16T01:41:56.881Z,18.64
2017-08-16T01:42:56.866Z,18.71
2017-08-16T01:43:56.855Z,18.65
2017-08-16T01:44:56.834Z,18.62
2017-08-16T01:45:56.806Z,18.68
2017-08-16T01:46:56.833Z,18.56
2017-08-16T01:47:56.778Z,18.54
2017-08-16T01:48:56.743Z,18.54
2017-08-16T01:49:56.723Z,18.53
2017-08-16T01:50:56.707Z,18.54
2017-08-16T01:51:56.686Z,18.53
2017-08-16T01:52:56.364Z,18.47
2017-08-16T01:53:56.695Z,18.53
2017-08-16T01:54:56.625Z,18.39
2017-08-16T01:55:56.605Z,18.39
2017-08-16T01:56:56.283Z,18.39
2017-08-16T01:57:56.572Z,18.46
2017-08-16T01:58:56.549Z,18.41
2017-08-16T01:59:56.535Z,18.38
2017-08-16T02:00:56.505Z,18.5
2017-08-16T02:01:56.484Z,18.39
2017-08-16T02:02:56.473Z,18.34
2017-08-16T02:03:56.449Z,18.44
2017-08-16T02:04:56.423Z,18.35
2017-08-16T02:05:56.399Z,18.35
2017-08-16T02:06:56.389Z,18.44
2017-08-16T02:07:56.368Z,18.38
2017-08-16T02:08:56.355Z,18.5
2017-08-16T02:09:56.331Z,18.44
2017-08-16T02:10:56.312Z,18.38
2017-08-16T02:11:56.337Z,18.35
2017-08-16T02:12:56.520Z,18.35
2017-08-16T02:13:56.251Z,18.32
2017-08-16T02:14:56.224Z,18.32
2017-08-16T02:15:56.255Z,18.35
2017-08-16T02:16:56.191Z,18.32
2017-08-16T02:17:56.163Z,18.35
2017-08-16T02:18:56.150Z,18.34
2017-08-16T02:19:56.133Z,18.31
2017-08-16T02:20:56.105Z,18.36
2017-08-16T02:21:56.084Z,18.34
2017-08-16T02:22:56.071Z,18.32
2017-08-16T02:23:56.044Z,18.38
2017-08-16T02:24:56.026Z,18.32
2017-08-16T02:25:56.056Z,18.31
2017-08-16T02:26:55.995Z,18.32
2017-08-16T02:27:55.970Z,18.35
2017-08-16T02:28:55.939Z,18.34
2017-08-16T02:29:55.923Z,18.35
2017-08-16T02:30:55.909Z,18.36
2017-08-16T02:31:55.892Z,18.32
2017-08-16T02:32:55.563Z,18.39
2017-08-16T02:33:55.897Z,18.35
2017-08-16T02:34:55.831Z,18.34
2017-08-16T02:35:55.808Z,18.38
2017-08-16T02:36:55.792Z,18.29
2017-08-16T02:37:55.766Z,18.29
2017-08-16T02:38:55.748Z,18.26
2017-08-16T02:39:55.787Z,18.26
2017-08-16T02:40:55.703Z,18.23
2017-08-16T02:41:55.693Z,18.29
2017-08-16T02:42:55.670Z,18.25
2017-08-16T02:43:55.340Z,18.26
2017-08-16T02:44:55.326Z,18.28
2017-08-16T02:45:55.610Z,18.23
2017-08-16T02:46:55.593Z,18.23
2017-08-16T02:47:55.567Z,18.32
2017-08-16T02:48:55.549Z,18.31
2017-08-16T02:49:55.521Z,18.46
2017-08-16T02:50:55.504Z,18.42
2017-08-16T02:51:55.489Z,18.41
2017-08-16T02:52:55.467Z,18.39
2017-08-16T02:53:55.444Z,18.42
2017-08-16T02:54:55.427Z,18.49
2017-08-16T02:55:55.409Z,18.49
2017-08-16T02:56:55.387Z,18.47
2017-08-16T02:57:55.371Z,18.38
2017-08-16T02:58:55.342Z,18.42
2017-08-16T02:59:55.321Z,18.47
2017-08-16T03:00:55.308Z,18.5
2017-08-16T03:01:55.293Z,18.49
2017-08-16T03:02:55.265Z,18.51
2017-08-16T03:03:55.244Z,18.44
2017-08-16T03:04:55.223Z,18.49
2017-08-16T03:05:55.205Z,18.51
2017-08-16T03:06:55.189Z,18.35
2017-08-16T03:07:55.221Z,18.38
2017-08-16T03:08:55.144Z,18.42
2017-08-16T03:09:55.122Z,18.44
2017-08-16T03:10:55.104Z,18.35
2017-08-16T03:11:55.094Z,18.35
2017-08-16T03:12:55.074Z,18.31
2017-08-16T03:13:55.038Z,18.38
2017-08-16T03:14:55.075Z,18.41
2017-08-16T03:15:54.998Z,18.41
2017-08-16T03:16:54.680Z,18.41
2017-08-16T03:17:54.964Z,18.46
2017-08-16T03:18:54.945Z,18.34
2017-08-16T03:19:54.919Z,18.36
2017-08-16T03:20:54.905Z,18.49
2017-08-16T03:21:54.884Z,18.39
2017-08-16T03:22:54.871Z,18.39
2017-08-16T03:23:54.847Z,18.47
2017-08-16T03:24:54.822Z,18.38
2017-08-16T03:25:54.803Z,18.44
2017-08-16T03:26:54.795Z,18.36
2017-08-16T03:27:54.759Z,18.44
2017-08-16T03:28:54.740Z,18.41
2017-08-16T03:29:54.416Z,18.42
2017-08-16T03:30:54.756Z,18.39
2017-08-16T03:31:54.706Z,18.38
2017-08-16T03:32:54.715Z,18.47
2017-08-16T03:33:54.638Z,18.36
2017-08-16T03:34:54.320Z,18.32
2017-08-16T03:35:54.665Z,18.29
2017-08-16T03:36:54.306Z,18.26
2017-08-16T03:37:54.563Z,18.21
2017-08-16T03:38:54.238Z,18.26
2017-08-16T03:39:54.520Z,18.35
2017-08-16T03:40:54.509Z,18.19
2017-08-16T03:41:54.488Z,18.2
2017-08-16T03:42:54.463Z,18.25
2017-08-16T03:43:54.440Z,18.2
2017-08-16T03:44:54.428Z,18.2
2017-08-16T03:45:54.401Z,18.11
2017-08-16T03:46:54.387Z,18.13
2017-08-16T03:47:54.361Z,18.1
2017-08-16T03:48:54.350Z,18.07
2017-08-16T03:49:54.338Z,18.1
2017-08-16T03:50:54.007Z,18.04
2017-08-16T03:51:54.290Z,18.09
2017-08-16T03:52:54.262Z,17.98
2017-08-16T03:53:54.237Z,18.07
2017-08-16T03:54:54.222Z,18.01
2017-08-16T03:55:54.201Z,18.07
2017-08-16T03:56:54.221Z,18.1
2017-08-16T03:57:54.156Z,17.96
2017-08-16T03:58:53.843Z,17.89
2017-08-16T03:59:54.122Z,17.91
2017-08-16T04:00:54.102Z,17.83
2017-08-16T04:01:54.178Z,17.94
2017-08-16T04:02:54.107Z,17.96
2017-08-16T04:03:54.053Z,17.91
2017-08-16T04:04:54.024Z,17.95
2017-08-16T04:05:53.999Z,17.94
2017-08-16T04:06:54.033Z,17.94
2017-08-16T04:07:53.962Z,18.01
2017-08-16T04:08:53.639Z,17.83
2017-08-16T04:09:53.624Z,17.87
2017-08-16T04:10:53.898Z,17.99
2017-08-16T04:11:53.881Z,17.95
2017-08-16T04:12:53.862Z,17.89
2017-08-16T04:13:53.841Z,17.99
2017-08-16T04:14:53.834Z,17.94
2017-08-16T04:15:53.801Z,17.99
2017-08-16T04:16:53.783Z,17.99
2017-08-16T04:17:53.760Z,18.02
2017-08-16T04:18:53.733Z,17.99
2017-08-16T04:19:53.715Z,18.02
2017-08-16T04:20:53.696Z,18.01
2017-08-16T04:21:53.679Z,17.95
2017-08-16T04:22:53.361Z,18.01
2017-08-16T04:23:53.339Z,17.94
2017-08-16T04:24:53.612Z,18.01
2017-08-16T04:25:53.590Z,17.81
2017-08-16T04:26:53.576Z,17.89
2017-08-16T04:27:53.550Z,17.89
2017-08-16T04:28:53.532Z,17.91
2017-08-16T04:29:53.214Z,17.87
2017-08-16T04:30:53.497Z,17.84
2017-08-16T04:31:53.473Z,17.76
2017-08-16T04:32:53.454Z,17.8
2017-08-16T04:33:53.433Z,17.83
2017-08-16T04:34:53.419Z,17.71
2017-08-16T04:35:53.396Z,17.71
2017-08-16T04:36:53.379Z,17.81
2017-08-16T04:37:53.352Z,17.74
2017-08-16T04:38:53.330Z,17.8
2017-08-16T04:39:53.009Z,17.77
2017-08-16T04:40:53.294Z,17.79
2017-08-16T04:41:53.269Z,17.81
2017-08-16T04:42:53.260Z,17.74
2017-08-16T04:43:53.234Z,17.81
2017-08-16T04:44:53.257Z,17.79
2017-08-16T04:45:53.202Z,17.79
2017-08-16T04:46:53.171Z,17.79
2017-08-16T04:47:53.145Z,17.79
2017-08-16T04:48:53.126Z,17.77
2017-08-16T04:49:52.807Z,17.79
2017-08-16T04:50:53.100Z,17.83
2017-08-16T04:51:53.065Z,17.79
2017-08-16T04:52:53.047Z,17.86
2017-08-16T04:53:53.024Z,17.81
2017-08-16T04:54:53.007Z,17.83
2017-08-16T04:55:52.992Z,17.81
2017-08-16T04:56:52.963Z,17.79
2017-08-16T04:57:52.948Z,17.76
2017-08-16T04:58:52.924Z,17.79
2017-08-16T04:59:52.915Z,17.76
2017-08-16T05:00:52.891Z,17.83
2017-08-16T05:01:52.863Z,17.83
2017-08-16T05:02:52.848Z,17.71
2017-08-16T05:03:52.824Z,17.74
2017-08-16T05:04:52.801Z,17.58
2017-08-16T05:05:52.786Z,17.62
2017-08-16T05:06:52.765Z,17.63
2017-08-16T05:07:52.739Z,17.65
2017-08-16T05:08:52.770Z,17.63
2017-08-16T05:09:52.709Z,17.62
2017-08-16T05:10:52.691Z,17.65
2017-08-16T05:11:52.676Z,17.63
2017-08-16T05:12:52.637Z,17.66
2017-08-16T05:13:52.638Z,17.73
2017-08-16T05:14:52.601Z,17.76
2017-08-16T05:15:52.588Z,17.77
2017-08-16T05:16:52.561Z,17.83
2017-08-16T05:17:52.543Z,17.87
2017-08-16T05:18:52.276Z,18.04
2017-08-16T05:19:52.196Z,18.05
2017-08-16T05:20:52.481Z,18.28
2017-08-16T05:21:52.461Z,18.31
2017-08-16T05:22:52.538Z,18.32
2017-08-16T05:23:52.425Z,18.49
2017-08-16T05:24:52.401Z,18.44
2017-08-16T05:25:52.383Z,18.5
2017-08-16T05:26:52.362Z,18.57
2017-08-16T05:27:52.345Z,18.53
2017-08-16T05:28:52.320Z,18.62
2017-08-16T05:29:52.006Z,18.65
2017-08-16T05:30:52.282Z,18.64
2017-08-16T05:31:52.262Z,18.82
2017-08-16T05:32:52.242Z,18.9
2017-08-16T05:33:52.230Z,18.72
2017-08-16T05:34:52.202Z,18.83
2017-08-16T05:35:52.187Z,18.71
2017-08-16T05:36:51.868Z,18.66
2017-08-16T05:37:52.160Z,18.62
2017-08-16T05:38:51.832Z,18.59
2017-08-16T05:39:52.110Z,18.5
2017-08-16T05:40:52.083Z,18.44
2017-08-16T05:41:52.070Z,18.39
2017-08-16T05:42:52.047Z,18.35
2017-08-16T05:43:52.023Z,18.44
2017-08-16T05:44:52.013Z,18.39
2017-08-16T05:45:52.007Z,18.29
2017-08-16T05:46:51.968Z,18.28
2017-08-16T05:47:51.694Z,18.19
2017-08-16T05:48:51.939Z,18.17
2017-08-16T05:49:51.914Z,18.14
2017-08-16T05:50:51.898Z,18.16
2017-08-16T05:51:51.873Z,18.19
2017-08-16T05:52:51.848Z,18.26
2017-08-16T05:53:51.827Z,18.17
2017-08-16T05:54:51.810Z,18.19
2017-08-16T05:55:51.800Z,18.21
2017-08-16T05:56:51.478Z,18.1
2017-08-16T05:57:51.750Z,18.11
2017-08-16T05:58:51.730Z,18.1
2017-08-16T05:59:51.716Z,18.14
2017-08-16T06:00:51.705Z,18.26
2017-08-16T06:01:51.673Z,18.2
2017-08-16T06:02:51.656Z,18.34
2017-08-16T06:03:51.636Z,18.49
2017-08-16T06:04:51.606Z,18.53
2017-08-16T06:05:51.649Z,18.65
2017-08-16T06:06:51.277Z,18.68
2017-08-16T06:07:51.255Z,18.99
2017-08-16T06:08:51.239Z,18.94
2017-08-16T06:09:51.572Z,19.06
2017-08-16T06:10:51.498Z,19.2
2017-08-16T06:11:51.530Z,19.39
2017-08-16T06:12:51.162Z,19.55
2017-08-16T06:13:51.441Z,19.61
2017-08-16T06:14:51.419Z,19.79
2017-08-16T06:15:51.402Z,19.98
2017-08-16T06:16:51.377Z,20.13
2017-08-16T06:17:51.358Z,20.17
2017-08-16T06:18:51.341Z,20.48
2017-08-16T06:19:51.322Z,20.72
2017-08-16T06:20:51.318Z,20.91
2017-08-16T06:21:50.988Z,20.98
2017-08-16T06:22:50.982Z,21.09
2017-08-16T06:23:51.247Z,21.36
2017-08-16T06:24:51.235Z,21.52
2017-08-16T06:25:51.226Z,21.86
2017-08-16T06:26:51.195Z,22.02
2017-08-16T06:27:51.183Z,22.11
2017-08-16T06:28:51.163Z,22.14
2017-08-16T06:29:51.150Z,22.17
2017-08-16T06:30:51.148Z,22.2
2017-08-16T06:31:51.131Z,22.36
2017-08-16T06:32:51.096Z,22.44
2017-08-16T06:33:51.080Z,22.6
2017-08-16T06:34:51.059Z,22.61
2017-08-16T06:35:51.055Z,22.54
2017-08-16T06:36:51.029Z,22.56
2017-08-16T06:37:51.014Z,22.75
2017-08-16T06:38:51.047Z,22.86
2017-08-16T06:39:50.987Z,22.88
2017-08-16T06:40:50.966Z,22.94
2017-08-16T06:41:50.955Z,23
2017-08-16T06:42:51.007Z,23.06
2017-08-16T06:43:50.918Z,23.29
2017-08-16T06:44:50.928Z,23.35
2017-08-16T06:45:50.886Z,23.5
2017-08-16T06:46:50.870Z,23.82
2017-08-16T06:47:50.859Z,24.08
2017-08-16T06:48:50.836Z,24.09
2017-08-16T06:49:50.832Z,24.08
2017-08-16T06:50:50.822Z,24.06
2017-08-16T06:51:50.500Z,24.12
2017-08-16T06:52:50.831Z,24.16
2017-08-16T06:53:50.515Z,24.36
2017-08-16T06:54:50.754Z,24.75
2017-08-16T06:55:50.737Z,24.93
2017-08-16T06:56:50.736Z,24.97
2017-08-16T06:57:50.457Z,24.79
2017-08-16T06:58:50.702Z,24.75
2017-08-16T06:59:50.692Z,24.83
2017-08-16T07:00:50.676Z,24.98
2017-08-16T07:01:50.362Z,25.19
2017-08-16T07:02:50.648Z,25.31
2017-08-16T07:03:50.632Z,25.48
2017-08-16T07:04:50.619Z,25.75
2017-08-16T07:05:50.610Z,26
2017-08-16T07:06:50.902Z,26.13
2017-08-16T07:07:50.289Z,26.06
2017-08-16T07:08:50.562Z,25.97
2017-08-16T07:09:50.613Z,25.96
2017-08-16T07:10:50.538Z,25.98
2017-08-16T07:11:50.228Z,25.79
2017-08-16T07:12:50.571Z,25.39
2017-08-16T07:13:50.516Z,24.84
2017-08-16T07:14:50.497Z,24.46
2017-08-16T07:15:50.478Z,24.26
2017-08-16T07:16:50.468Z,24.44
2017-08-16T07:17:50.448Z,24.51
2017-08-16T07:18:50.486Z,24.63
2017-08-16T07:19:50.471Z,24.92
2017-08-16T07:20:50.455Z,25.3
2017-08-16T07:21:50.399Z,25.36
2017-08-16T07:22:50.391Z,25.42
2017-08-16T07:23:50.380Z,25.48
2017-08-16T07:24:50.416Z,25.63
2017-08-16T07:25:50.351Z,25.78
2017-08-16T07:26:50.410Z,25.91
2017-08-16T07:27:50.330Z,26.01
2017-08-16T07:28:50.316Z,26.2
2017-08-16T07:29:50.303Z,26.42
2017-08-16T07:30:49.991Z,26.44
2017-08-16T07:31:50.283Z,26.41
2017-08-16T07:32:50.264Z,26.46
2017-08-16T07:33:50.262Z,26.5
2017-08-16T07:34:49.958Z,26.73
2017-08-16T07:35:50.281Z,26.98
2017-08-16T07:36:50.216Z,26.98
2017-08-16T07:37:50.214Z,27.02
2017-08-16T07:38:50.200Z,27.05
2017-08-16T07:39:50.198Z,27.15
2017-08-16T07:40:50.179Z,27.16
2017-08-16T07:41:50.166Z,27.28
2017-08-16T07:42:50.168Z,27.24
2017-08-16T07:43:50.147Z,27.35
2017-08-16T07:44:50.138Z,27.31
2017-08-16T07:45:50.125Z,27.35
2017-08-16T07:46:49.867Z,27.45
2017-08-16T07:47:50.108Z,27.46
2017-08-16T07:48:50.102Z,27.71
2017-08-16T07:49:50.088Z,27.84
2017-08-16T07:50:50.081Z,27.76
2017-08-16T07:51:50.068Z,27.83
2017-08-16T07:52:50.059Z,27.91
2017-08-16T07:53:50.055Z,27.87
2017-08-16T07:54:50.030Z,27.72
2017-08-16T07:55:49.730Z,27.87
2017-08-16T07:56:50.024Z,27.9
2017-08-16T07:57:50.006Z,28.06
2017-08-16T07:58:50.004Z,28.2
2017-08-16T07:59:49.984Z,28.21
2017-08-16T08:00:49.987Z,28.21
2017-08-16T08:01:49.961Z,28.23
2017-08-16T08:02:49.964Z,28.33
2017-08-16T08:03:49.966Z,28.3
2017-08-16T08:04:49.944Z,28.27
2017-08-16T08:05:49.933Z,28.28
2017-08-16T08:06:49.631Z,28.39
2017-08-16T08:07:49.910Z,28.36
2017-08-16T08:08:49.904Z,28.35
2017-08-16T08:09:49.595Z,28.42
2017-08-16T08:10:49.884Z,28.52
2017-08-16T08:11:49.873Z,28.55
2017-08-16T08:12:49.564Z,28.58
2017-08-16T08:13:49.852Z,28.77
2017-08-16T08:14:49.911Z,29.08
2017-08-16T08:15:49.841Z,29.44
2017-08-16T08:16:49.837Z,29.6
2017-08-16T08:17:49.874Z,29.64
2017-08-16T08:18:49.812Z,29.54
2017-08-16T08:19:49.807Z,29.48
2017-08-16T08:20:49.497Z,29.12
2017-08-16T08:21:49.791Z,29.2
2017-08-16T08:22:49.780Z,29.44
2017-08-16T08:23:49.778Z,29.74
2017-08-16T08:24:49.469Z,30.04
2017-08-16T08:25:49.761Z,30.11
2017-08-16T08:26:49.746Z,30.07
2017-08-16T08:27:49.747Z,30.15
2017-08-16T08:28:49.735Z,30.13
2017-08-16T08:29:49.429Z,30.26
2017-08-16T08:30:49.418Z,30.23
2017-08-16T08:31:49.762Z,30.36
2017-08-16T08:32:49.716Z,30.63
2017-08-16T08:33:49.706Z,30.83
2017-08-16T08:34:49.697Z,31.07
2017-08-16T08:35:49.688Z,31
2017-08-16T08:36:49.687Z,30.93
2017-08-16T08:37:49.672Z,30.82
2017-08-16T08:38:49.670Z,30.67
2017-08-16T08:39:49.657Z,30.68
2017-08-16T08:40:49.660Z,31
2017-08-16T08:41:49.643Z,31.32
2017-08-16T08:42:49.633Z,31.47
2017-08-16T08:43:49.628Z,31.54
2017-08-16T08:44:49.623Z,31.68
2017-08-16T08:45:49.618Z,31.72
2017-08-16T08:46:49.613Z,31.64
2017-08-16T08:47:49.600Z,31.35
2017-08-16T08:48:49.598Z,31.18
2017-08-16T08:49:49.593Z,30.98
2017-08-16T08:50:49.589Z,31.1
2017-08-16T08:51:49.593Z,31.28
2017-08-16T08:52:49.566Z,31.25
2017-08-16T08:53:49.562Z,30.82
2017-08-16T08:54:49.556Z,30.54
2017-08-16T08:55:49.558Z,30.36
2017-08-16T08:56:49.238Z,30.28
2017-08-16T08:57:49.539Z,30.36
2017-08-16T08:58:49.535Z,30.25
2017-08-16T08:59:49.523Z,30.28
2017-08-16T09:00:49.513Z,30.13
2017-08-16T09:01:49.519Z,30.03
2017-08-16T09:02:49.501Z,29.99
2017-08-16T09:03:49.248Z,29.71
2017-08-16T09:04:49.497Z,29.63
2017-08-16T09:05:49.484Z,29.69
2017-08-16T09:06:49.489Z,30
2017-08-16T09:07:49.483Z,30.36
2017-08-16T09:08:49.468Z,30.32
2017-08-16T09:09:49.467Z,30.03
2017-08-16T09:10:49.148Z,29.78
2017-08-16T09:11:49.444Z,29.58
2017-08-16T09:12:49.435Z,29.18
2017-08-16T09:13:49.430Z,28.97
2017-08-16T09:14:49.429Z,28.98
2017-08-16T09:15:49.416Z,28.88
2017-08-16T09:16:49.404Z,28.87
2017-08-16T09:17:49.395Z,28.82
2017-08-16T09:18:49.414Z,28.8
2017-08-16T09:19:49.380Z,28.83
2017-08-16T09:20:49.433Z,29
2017-08-16T09:21:49.418Z,28.83
2017-08-16T09:22:49.391Z,28.83
2017-08-16T09:23:49.350Z,28.8
2017-08-16T09:24:49.363Z,28.7
2017-08-16T09:25:49.331Z,28.45
2017-08-16T09:26:49.340Z,28.25
2017-08-16T09:27:49.316Z,28.25
2017-08-16T09:28:49.318Z,28.4
2017-08-16T09:29:49.305Z,28.62
2017-08-16T09:30:49.343Z,28.82
2017-08-16T09:31:49.290Z,28.97
2017-08-16T09:32:49.281Z,29
2017-08-16T09:33:49.270Z,28.92
2017-08-16T09:34:49.305Z,28.89
2017-08-16T09:35:49.263Z,28.85
2017-08-16T09:36:49.294Z,28.57
2017-08-16T09:37:49.230Z,28.43
2017-08-16T09:38:49.228Z,28.45
2017-08-16T09:39:49.218Z,28.33
2017-08-16T09:40:49.209Z,28.25
2017-08-16T09:41:49.202Z,28.25
2017-08-16T09:42:49.196Z,28.55
2017-08-16T09:43:48.885Z,28.97
2017-08-16T09:44:49.182Z,29.1
2017-08-16T09:45:49.178Z,29.08
2017-08-16T09:46:49.430Z,28.97
2017-08-16T09:47:49.151Z,29.05
2017-08-16T09:48:49.141Z,29.07
2017-08-16T09:49:49.139Z,29.23
2017-08-16T09:50:49.137Z,29.14
2017-08-16T09:51:49.168Z,29.12
2017-08-16T09:52:49.114Z,29.11
2017-08-16T09:53:49.109Z,29.17
2017-08-16T09:54:49.098Z,29.1
2017-08-16T09:55:49.421Z,29.2
2017-08-16T09:56:49.126Z,29.32
2017-08-16T09:57:49.084Z,29.26
2017-08-16T09:58:48.762Z,29.2
2017-08-16T09:59:49.056Z,29.3
2017-08-16T10:00:48.441Z,29.52
2017-08-16T10:01:49.031Z,29.73
2017-08-16T10:02:48.726Z,29.81
2017-08-16T10:03:49.027Z,29.97
2017-08-16T10:04:49.008Z,30.07
2017-08-16T10:05:48.715Z,30
2017-08-16T10:06:48.693Z,30.04
2017-08-16T10:07:48.988Z,30.07
2017-08-16T10:08:48.987Z,30.11
2017-08-16T10:09:48.972Z,30.11
2017-08-16T10:10:48.964Z,30.18
2017-08-16T10:11:48.963Z,30.11
2017-08-16T10:12:48.954Z,30.18
2017-08-16T10:13:48.942Z,30.04
2017-08-16T10:14:48.931Z,29.88
2017-08-16T10:15:48.926Z,29.69
2017-08-16T10:16:48.929Z,29.62
2017-08-16T10:17:48.914Z,29.57
2017-08-16T10:18:48.909Z,29.66
2017-08-16T10:19:48.908Z,29.64
2017-08-16T10:20:48.938Z,29.82
2017-08-16T10:21:49.134Z,29.74
2017-08-16T10:22:48.929Z,29.6
2017-08-16T10:23:48.878Z,29.17
2017-08-16T10:24:48.866Z,28.97
2017-08-16T10:25:48.852Z,28.64
2017-08-16T10:26:48.839Z,28.51
2017-08-16T10:27:48.840Z,28.32
2017-08-16T10:28:48.821Z,28.06
2017-08-16T10:29:48.821Z,28.03
2017-08-16T10:30:48.859Z,28.02
2017-08-16T10:31:48.825Z,28.15
2017-08-16T10:32:48.798Z,28.15
2017-08-16T10:33:48.835Z,28.03
2017-08-16T10:34:48.783Z,28.13
2017-08-16T10:35:48.767Z,28.28
2017-08-16T10:36:49.059Z,28.42
2017-08-16T10:37:48.750Z,28.33
2017-08-16T10:38:48.440Z,28.32
2017-08-16T10:39:48.740Z,28.33
2017-08-16T10:40:48.432Z,28.23
2017-08-16T10:41:48.723Z,27.74
2017-08-16T10:42:48.722Z,27.21
2017-08-16T10:43:48.697Z,26.88
2017-08-16T10:44:48.692Z,26.61
2017-08-16T10:45:48.689Z,26.34
2017-08-16T10:46:48.674Z,26.09
2017-08-16T10:47:48.669Z,25.96
2017-08-16T10:48:48.653Z,26.03
2017-08-16T10:49:48.347Z,25.82
2017-08-16T10:50:48.631Z,25.9
2017-08-16T10:51:48.618Z,25.75
2017-08-16T10:52:48.609Z,25.66
2017-08-16T10:53:48.699Z,25.59
2017-08-16T10:54:48.589Z,25.45
2017-08-16T10:55:48.274Z,25.26
2017-08-16T10:56:48.557Z,25.11
2017-08-16T10:57:48.241Z,24.93
2017-08-16T10:58:48.532Z,24.55
2017-08-16T10:59:48.521Z,24.21
2017-08-16T11:00:48.556Z,23.94
2017-08-16T11:01:48.506Z,23.93
2017-08-16T11:02:48.481Z,23.94
2017-08-16T11:03:48.462Z,23.92
2017-08-16T11:04:48.453Z,23.97
2017-08-16T11:05:48.438Z,23.99
2017-08-16T11:06:48.424Z,23.99
2017-08-16T11:07:48.710Z,24
2017-08-16T11:08:48.388Z,23.99
2017-08-16T11:09:48.373Z,23.9
2017-08-16T11:10:48.362Z,23.99
2017-08-16T11:11:48.349Z,23.97
2017-08-16T11:12:48.333Z,23.93
2017-08-16T11:13:48.312Z,23.89
2017-08-16T11:14:48.302Z,23.96
2017-08-16T11:15:48.285Z,23.9
2017-08-16T11:16:48.573Z,23.81
2017-08-16T11:17:48.256Z,23.81
2017-08-16T11:18:48.272Z,23.77
2017-08-16T11:19:48.227Z,23.82
2017-08-16T11:20:48.209Z,23.78
2017-08-16T11:21:47.884Z,23.92
2017-08-16T11:22:48.168Z,23.86
2017-08-16T11:23:48.154Z,23.77
2017-08-16T11:24:48.141Z,23.74
2017-08-16T11:25:48.129Z,23.71
2017-08-16T11:26:48.118Z,23.78
2017-08-16T11:27:48.090Z,23.82
2017-08-16T11:28:47.780Z,23.93
2017-08-16T11:29:48.062Z,24.16
2017-08-16T11:30:48.036Z,24.16
2017-08-16T11:31:48.578Z,24.09
2017-08-16T11:32:48.017Z,24.19
2017-08-16T11:33:47.991Z,24.23
2017-08-16T11:34:47.975Z,24.31
2017-08-16T11:35:47.960Z,24.33
2017-08-16T11:36:47.941Z,24.3
2017-08-16T11:37:47.927Z,24.29
2017-08-16T11:38:47.912Z,24.12
2017-08-16T11:39:47.895Z,24.08
2017-08-16T11:40:47.887Z,24.11
2017-08-16T11:41:47.875Z,24.16
2017-08-16T11:42:47.866Z,24.24
2017-08-16T11:43:47.932Z,24.26
2017-08-16T11:44:47.818Z,24.23
2017-08-16T11:45:47.805Z,24.14
2017-08-16T11:46:47.484Z,24.12
2017-08-16T11:47:47.772Z,24.05
2017-08-16T11:48:47.752Z,24.12
2017-08-16T11:49:47.735Z,23.93
2017-08-16T11:50:47.736Z,24.02
2017-08-16T11:51:47.706Z,24.14
2017-08-16T11:52:47.691Z,24.18
2017-08-16T11:53:47.671Z,24.11
2017-08-16T11:54:47.649Z,24.24
2017-08-16T11:55:47.631Z,24.27
2017-08-16T11:56:47.466Z,24.26
2017-08-16T11:57:47.599Z,24.41
2017-08-16T11:58:47.584Z,24.42
2017-08-16T11:59:47.277Z,24.3
2017-08-16T12:00:47.557Z,24.26
2017-08-16T12:01:47.546Z,24.23
2017-08-16T12:02:47.722Z,24.14
2017-08-16T12:03:47.502Z,24.26
2017-08-16T12:04:47.596Z,24.21
2017-08-16T12:05:47.169Z,24.27
2017-08-16T12:06:47.460Z,24.42
2017-08-16T12:07:47.490Z,24.39
2017-08-16T12:08:47.428Z,24.46
2017-08-16T12:09:47.412Z,24.53
2017-08-16T12:10:47.400Z,24.66
2017-08-16T12:11:47.374Z,24.68
2017-08-16T12:12:47.864Z,24.75
2017-08-16T12:13:47.335Z,24.77
2017-08-16T12:14:47.325Z,24.77
2017-08-16T12:15:47.311Z,24.77
2017-08-16T12:16:47.015Z,24.86
2017-08-16T12:17:47.278Z,24.8
2017-08-16T12:18:47.275Z,24.68
2017-08-16T12:19:46.948Z,24.61
2017-08-16T12:20:47.247Z,24.49
2017-08-16T12:21:46.914Z,24.33
2017-08-16T12:22:47.211Z,24.29
2017-08-16T12:23:47.231Z,24.3
2017-08-16T12:24:47.170Z,24.29
2017-08-16T12:25:47.151Z,24.16
2017-08-16T12:26:47.139Z,24.09
2017-08-16T12:27:47.120Z,24.16
2017-08-16T12:28:47.103Z,24.27
2017-08-16T12:29:47.091Z,24.23
2017-08-16T12:30:47.121Z,24.18
2017-08-16T12:31:46.766Z,24.21
2017-08-16T12:32:47.038Z,24.23
2017-08-16T12:33:47.020Z,24.14
2017-08-16T12:34:47.010Z,24.12
2017-08-16T12:35:46.687Z,24.15
2017-08-16T12:36:46.979Z,24.16
2017-08-16T12:37:46.956Z,24.12
2017-08-16T12:38:46.942Z,24.12
2017-08-16T12:39:46.928Z,24.12
2017-08-16T12:40:46.909Z,24.14
2017-08-16T12:41:46.897Z,24.05
2017-08-16T12:42:46.880Z,24.14
2017-08-16T12:43:46.867Z,24.19
2017-08-16T12:44:46.841Z,24.23
2017-08-16T12:45:46.838Z,24.31
2017-08-16T12:46:46.809Z,24.34
2017-08-16T12:47:46.497Z,24.41
2017-08-16T12:48:46.782Z,24.44
2017-08-16T12:49:46.766Z,24.46
2017-08-16T12:50:46.741Z,24.53
2017-08-16T12:51:46.735Z,24.59
2017-08-16T12:52:46.723Z,24.63
2017-08-16T12:53:46.409Z,24.66
2017-08-16T12:54:46.683Z,24.63
2017-08-16T12:55:46.663Z,24.71